Time;durP1;ratioP1;P1;durP2;ratioP2;P2;SDS_P1;SDS_P2;PMS_P1;PMS_P2;Temp;Humidity;BMP_temperature;BMP_pressure;BME280_temperature;BME280_humidity;BME280_pressure;Samples;Min_cycle;Max_cycle;Signal;HPM_P1;HPM_P2
2022/04/20 00:00:35;;;;;;;3.60;1.90;;;;;;;7.18;72.54;101917.19;5028572;28;20033;-70
2022/04/20 00:03:01;;;;;;;2.80;1.65;;;;;;;7.16;72.72;101921.72;5027661;28;20057;-70
2022/04/20 00:05:27;;;;;;;4.25;2.03;;;;;;;7.17;72.91;101918.13;5029377;28;20385;-70
2022/04/20 00:07:52;;;;;;;3.70;2.10;;;;;;;7.03;72.50;101901.59;5025378;28;20075;-70
2022/04/20 00:10:18;;;;;;;3.25;2.00;;;;;;;7.08;73.19;101904.78;5029512;28;20033;-70
2022/04/20 00:12:43;;;;;;;3.08;1.85;;;;;;;7.13;73.16;101926.31;5024910;28;20113;-70
2022/04/20 00:15:09;;;;;;;2.55;1.83;;;;;;;7.09;72.92;101919.59;5014168;28;20490;-70
2022/04/20 00:17:34;;;;;;;3.80;2.22;;;;;;;7.04;73.53;101919.06;5025953;28;20025;-70
2022/04/20 00:20:00;;;;;;;3.17;1.75;;;;;;;6.98;73.34;101915.88;5027675;28;20061;-70
2022/04/20 00:22:26;;;;;;;3.50;1.55;;;;;;;7.06;73.36;101922.41;5021052;28;20038;-70
2022/04/20 00:24:51;;;;;;;2.78;2.00;;;;;;;7.03;73.78;101917.34;5027304;28;20280;-70
2022/04/20 00:27:16;;;;;;;2.80;1.77;;;;;;;7.00;73.44;101919.22;5027340;28;20026;-70
2022/04/20 00:29:42;;;;;;;5.72;2.35;;;;;;;6.99;74.17;101919.34;5027836;28;20026;-70
2022/04/20 00:32:08;;;;;;;4.95;1.90;;;;;;;6.96;73.77;101920.38;5026920;28;20040;-71
2022/04/20 00:34:33;;;;;;;3.63;1.63;;;;;;;6.93;74.18;101917.13;5028030;28;20429;-70
2022/04/20 00:36:59;;;;;;;2.53;1.63;;;;;;;6.82;73.70;101904.69;5025098;28;20079;-70
2022/04/20 00:39:24;;;;;;;2.53;1.80;;;;;;;6.80;73.85;101896.91;5028602;28;20156;-70
2022/04/20 00:41:51;;;;;;;4.43;1.83;;;;;;;6.87;74.36;101918.34;5023896;28;20107;-69
2022/04/20 00:44:17;;;;;;;3.22;2.10;;;;;;;6.85;74.49;101912.38;5028903;28;20029;-69
2022/04/20 00:46:45;;;;;;;4.18;2.00;;;;;;;6.82;74.10;101909.94;5025880;28;20048;-69
2022/04/20 00:49:12;;;;;;;6.47;1.88;;;;;;;6.82;74.19;101909.94;5027600;28;20017;-70
2022/04/20 00:51:37;;;;;;;2.92;1.77;;;;;;;6.79;74.54;101915.38;5026762;28;20037;-70
2022/04/20 00:54:03;;;;;;;4.13;2.00;;;;;;;6.73;74.59;101900.06;5027160;28;20500;-70
2022/04/20 00:56:28;;;;;;;2.95;1.77;;;;;;;6.76;74.95;101915.59;5028914;28;20068;-70
2022/04/20 00:58:58;;;;;;;3.00;1.77;;;;;;;6.71;74.76;101909.81;5027833;28;20025;-70
2022/04/20 01:01:26;;;;;;;3.45;2.03;;;;;;;6.72;75.17;101908.84;5025354;28;20029;-68
2022/04/20 01:03:52;;;;;;;2.80;1.70;;;;;;;6.69;75.27;101916.94;5026922;28;20021;-68
2022/04/20 01:06:17;;;;;;;3.72;1.90;;;;;;;6.64;75.45;101908.50;5028112;28;20078;-68
2022/04/20 01:08:44;;;;;;;6.47;2.47;;;;;;;6.65;75.57;101911.03;5026170;28;20034;-68
2022/04/20 01:11:09;;;;;;;3.47;2.10;;;;;;;6.61;76.03;101906.09;5027955;28;20393;-68
2022/04/20 01:13:35;;;;;;;3.97;2.00;;;;;;;6.56;76.56;101904.59;5026743;28;20034;-68
2022/04/20 01:16:00;;;;;;;3.75;2.03;;;;;;;6.54;76.43;101903.00;5027350;28;20489;-68
2022/04/20 01:18:26;;;;;;;3.40;1.70;;;;;;;6.58;76.96;101902.72;5027216;28;20109;-68
2022/04/20 01:20:51;;;;;;;3.97;1.77;;;;;;;6.58;76.85;101917.63;5027463;28;20099;-68
2022/04/20 01:23:16;;;;;;;4.03;2.40;;;;;;;6.55;76.59;101917.78;5025797;28;20149;-68
2022/04/20 01:25:42;;;;;;;4.30;1.75;;;;;;;6.54;77.30;101919.59;5026805;28;20038;-68
2022/04/20 01:28:07;;;;;;;3.25;2.03;;;;;;;6.50;77.44;101919.88;5027940;28;20413;-68
2022/04/20 01:30:33;;;;;;;2.78;1.75;;;;;;;6.48;77.16;101911.25;5027321;28;20026;-68
2022/04/20 01:33:00;;;;;;;3.75;2.10;;;;;;;6.41;76.85;101910.81;5022688;28;20056;-68
2022/04/20 01:35:25;;;;;;;5.10;1.67;;;;;;;6.44;77.03;101915.84;5028753;28;20516;-68
2022/04/20 01:37:50;;;;;;;6.35;2.15;;;;;;;6.44;76.82;101910.59;5028626;28;20025;-68
2022/04/20 01:40:16;;;;;;;4.35;2.05;;;;;;;6.46;76.88;101919.22;5032079;28;20026;-68
2022/04/20 01:42:41;;;;;;;3.92;1.85;;;;;;;6.38;77.46;101911.03;5028260;28;20053;-68
2022/04/20 01:45:07;;;;;;;3.35;2.08;;;;;;;6.29;77.06;101907.19;5021689;28;20033;-68
2022/04/20 01:47:32;;;;;;;4.32;2.25;;;;;;;6.31;77.67;101909.69;5030199;28;20059;-68
2022/04/20 01:49:57;;;;;;;5.82;2.20;;;;;;;6.33;77.64;101918.31;5028882;28;20481;-68
2022/04/20 01:52:23;;;;;;;4.38;2.10;;;;;;;6.29;77.75;101924.69;5027622;28;20505;-68
2022/04/20 01:54:48;;;;;;;2.05;1.70;;;;;;;6.29;77.18;101922.94;5031272;28;20041;-68
2022/04/20 01:57:14;;;;;;;6.53;2.35;;;;;;;6.24;77.33;101919.72;5028733;28;20040;-68
2022/04/20 01:59:39;;;;;;;7.13;2.45;;;;;;;6.25;77.69;101926.66;5021684;28;20033;-68
2022/04/20 02:04:48;;;;;;;5.00;1.98;;;;;;;6.23;77.78;101922.44;5031973;28;20040;-68
2022/04/20 02:07:13;;;;;;;3.55;1.90;;;;;;;6.22;77.72;101926.00;5030474;28;20037;-68
2022/04/20 02:09:39;;;;;;;3.45;1.90;;;;;;;6.21;77.96;101919.94;5023801;28;20032;-68
2022/04/20 02:12:05;;;;;;;3.88;2.15;;;;;;;6.07;77.92;101907.66;5028571;28;20029;-68
2022/04/20 02:14:30;;;;;;;2.75;1.83;;;;;;;6.16;78.21;101914.09;5020451;28;20484;-68
2022/04/20 02:16:55;;;;;;;4.32;1.50;;;;;;;6.14;77.77;101916.84;5030664;28;20065;-68
2022/04/20 02:19:21;;;;;;;2.60;1.88;;;;;;;6.13;77.83;101916.94;5026893;28;20426;-68
2022/04/20 02:21:46;;;;;;;2.28;1.73;;;;;;;6.06;78.72;101919.09;5029052;28;20135;-68
2022/04/20 02:24:13;;;;;;;2.33;1.98;;;;;;;5.98;80.33;101919.53;5022854;28;20017;-68
2022/04/20 02:26:39;;;;;;;7.72;2.20;;;;;;;5.95;79.82;101917.13;5028402;28;20038;-68
2022/04/20 02:29:04;;;;;;;3.25;1.92;;;;;;;5.93;79.86;101920.75;5027944;28;20026;-68
2022/04/20 02:31:29;;;;;;;3.10;2.25;;;;;;;5.94;79.40;101922.41;5029422;28;20108;-68
2022/04/20 02:33:55;;;;;;;4.15;2.25;;;;;;;5.90;78.95;101915.69;5030611;28;20026;-68
2022/04/20 02:36:21;;;;;;;2.83;1.80;;;;;;;5.90;79.37;101923.53;5028738;28;20444;-68
2022/04/20 02:38:47;;;;;;;2.33;1.92;;;;;;;5.88;78.69;101918.41;5027125;28;20029;-69
2022/04/20 02:41:13;;;;;;;3.40;1.98;;;;;;;5.81;78.45;101911.84;5027433;28;20085;-68
2022/04/20 02:43:38;;;;;;;3.65;1.83;;;;;;;5.77;79.61;101919.06;5029505;28;20033;-68
2022/04/20 02:46:04;;;;;;;4.80;2.28;;;;;;;5.75;79.99;101917.47;5022125;28;20057;-68
2022/04/20 02:48:30;;;;;;;4.57;1.77;;;;;;;5.59;79.95;101914.06;5030072;28;20382;-68
2022/04/20 02:50:55;;;;;;;2.88;2.05;;;;;;;5.66;80.17;101926.72;5028711;28;20668;-68
2022/04/20 02:53:20;;;;;;;6.38;1.85;;;;;;;5.64;80.12;101932.97;5030659;28;20449;-69
2022/04/20 02:55:46;;;;;;;3.15;1.92;;;;;;;5.56;81.26;101929.03;5029165;28;20136;-67
2022/04/20 02:58:11;;;;;;;3.42;2.20;;;;;;;5.49;80.84;101906.78;5029653;28;20072;-69
2022/04/20 03:00:36;;;;;;;2.72;1.80;;;;;;;5.56;81.13;101925.56;5022511;28;20112;-68
2022/04/20 03:03:02;;;;;;;5.22;2.45;;;;;;;5.59;81.26;101932.41;5030528;28;20612;-68
2022/04/20 03:05:27;;;;;;;3.28;2.00;;;;;;;5.63;81.57;101936.53;5029270;28;20028;-68
2022/04/20 03:07:53;;;;;;;3.20;2.15;;;;;;;5.63;81.35;101931.28;5028995;28;20033;-68
2022/04/20 03:10:18;;;;;;;5.68;2.20;;;;;;;5.47;80.89;101915.66;5023822;28;20073;-68
2022/04/20 03:12:44;;;;;;;4.30;2.30;;;;;;;5.56;81.32;101934.28;5021183;28;20035;-68
2022/04/20 03:15:09;;;;;;;5.38;2.50;;;;;;;5.47;80.89;101933.97;5029604;28;20440;-68
2022/04/20 03:17:34;;;;;;;4.07;2.20;;;;;;;5.40;81.38;101909.06;5029698;28;20029;-68
2022/04/20 03:20:00;;;;;;;3.20;1.83;;;;;;;5.49;82.04;101930.34;5026791;28;20505;-69
2022/04/20 03:22:25;;;;;;;3.88;2.13;;;;;;;5.43;81.98;101933.31;5028608;28;20053;-68
2022/04/20 03:24:51;;;;;;;3.00;1.90;;;;;;;5.42;82.17;101931.66;5029108;28;20430;-68
2022/04/20 03:27:16;;;;;;;4.57;1.75;;;;;;;5.25;82.60;101911.69;5030211;28;20025;-68
2022/04/20 03:29:41;;;;;;;4.13;2.53;;;;;;;5.39;82.82;101926.56;5019490;28;20508;-68
2022/04/20 03:32:12;;;;;;;4.18;1.95;;;;;;;5.39;82.24;101931.81;5029384;28;20111;-68
2022/04/20 03:34:38;;;;;;;3.15;2.30;;;;;;;5.37;83.00;101933.66;5026735;28;20370;-68
2022/04/20 03:37:05;;;;;;;4.82;2.30;;;;;;;5.40;82.96;101937.88;5029268;28;20057;-69
2022/04/20 03:39:32;;;;;;;3.85;2.55;;;;;;;5.39;82.73;101944.91;5025946;28;20045;-69
2022/04/20 03:41:57;;;;;;;3.80;2.20;;;;;;;5.41;83.29;101950.06;5026818;28;20025;-69
2022/04/20 03:44:23;;;;;;;4.18;2.20;;;;;;;5.41;83.46;101950.88;5027844;28;20112;-68
2022/04/20 03:46:48;;;;;;;3.28;2.55;;;;;;;5.38;83.24;101955.44;5029567;28;20056;-68
2022/04/20 03:49:14;;;;;;;3.05;2.13;;;;;;;5.38;83.83;101951.06;5027927;28;20040;-68
2022/04/20 03:51:40;;;;;;;3.90;2.40;;;;;;;5.36;83.75;101958.19;5026005;28;20056;-69
2022/04/20 03:54:06;;;;;;;2.53;2.00;;;;;;;5.34;84.19;101955.63;5026665;28;20474;-68
2022/04/20 03:57:03;;;;;;;3.67;2.60;;;;;;;5.36;83.59;101953.78;5028473;28;20116;-68
2022/04/20 03:59:17;;;;;;;2.95;2.15;;;;;;;5.35;84.10;101957.31;5027349;28;20077;-68
2022/04/20 04:01:42;;;;;;;4.07;2.03;;;;;;;5.23;84.35;101955.41;5026594;28;20558;-68
2022/04/20 04:04:07;;;;;;;4.35;2.15;;;;;;;5.26;84.32;101960.47;5017788;28;20040;-67
2022/04/20 04:06:33;;;;;;;3.92;2.35;;;;;;;5.24;84.02;101958.88;5027880;28;20444;-68
2022/04/20 04:08:59;;;;;;;3.75;2.00;;;;;;;5.23;84.88;101963.28;5028361;28;20359;-67
2022/04/20 04:11:24;;;;;;;3.72;2.40;;;;;;;5.22;84.46;101966.81;5023000;28;20096;-68
2022/04/20 04:13:50;;;;;;;3.75;2.33;;;;;;;5.23;84.63;101972.91;5028979;28;20025;-68
2022/04/20 04:16:15;;;;;;;3.90;2.40;;;;;;;5.20;84.70;101962.59;5028526;28;20025;-69
2022/04/20 04:18:40;;;;;;;4.22;2.42;;;;;;;5.19;84.91;101967.00;5027192;28;20025;-68
2022/04/20 04:21:06;;;;;;;8.48;2.20;;;;;;;5.17;84.71;101962.78;5022259;28;20064;-69
2022/04/20 04:23:31;;;;;;;3.40;2.10;;;;;;;5.19;84.62;101961.75;5018762;28;20124;-69
2022/04/20 04:25:56;;;;;;;3.55;2.20;;;;;;;5.22;84.94;101974.66;5026133;28;20210;-69
2022/04/20 04:28:22;;;;;;;4.10;2.20;;;;;;;5.07;84.88;101949.34;5026789;28;20080;-67
2022/04/20 04:30:48;;;;;;;4.60;2.60;;;;;;;5.20;84.24;101962.59;5015856;28;20045;-70
2022/04/20 04:33:14;;;;;;;2.75;2.22;;;;;;;5.24;83.39;101972.78;5026763;28;20369;-68
2022/04/20 04:35:39;;;;;;;3.70;2.40;;;;;;;5.28;83.39;101974.31;5021680;28;20477;-68
2022/04/20 04:38:05;;;;;;;2.55;2.08;;;;;;;5.31;84.08;101975.91;5025166;28;20040;-68
2022/04/20 04:40:31;;;;;;;3.38;2.22;;;;;;;5.30;84.35;101971.59;5023648;28;20037;-68
2022/04/20 04:42:57;;;;;;;3.90;2.50;;;;;;;5.21;83.22;101954.66;5025250;28;20033;-68
2022/04/20 04:50:50;;;;;;;4.57;2.28;;;;;;;5.35;82.90;101967.78;5017794;28;20150;-69
2022/04/20 04:53:15;;;;;;;4.05;2.15;;;;;;;5.41;83.49;101971.00;5007564;28;20080;-69
2022/04/20 04:55:41;;;;;;;3.78;2.20;;;;;;;5.41;83.50;101976.22;5024308;28;20041;-68
2022/04/20 04:58:06;;;;;;;4.90;2.58;;;;;;;5.34;84.54;101968.72;5023020;28;20032;-68
2022/04/20 05:00:32;;;;;;;4.13;2.13;;;;;;;5.38;84.23;101968.53;5014893;28;20033;-68
2022/04/20 05:02:57;;;;;;;5.85;2.72;;;;;;;5.45;84.31;101977.75;5026023;28;20028;-68
2022/04/20 05:05:23;;;;;;;3.63;2.78;;;;;;;5.48;84.55;101974.94;5006786;28;20037;-68
2022/04/20 05:07:54;;;;;;;3.58;2.53;;;;;;;5.52;84.00;101979.91;5024805;28;20072;-67
2022/04/20 05:10:22;;;;;;;7.13;2.33;;;;;;;5.52;83.45;101982.50;5024136;28;20040;-67
2022/04/20 05:12:48;;;;;;;7.20;2.65;;;;;;;5.59;83.06;101976.94;5024236;28;20486;-68
2022/04/20 05:15:14;;;;;;;3.28;2.15;;;;;;;5.66;84.20;101981.72;5029266;28;20068;-67
2022/04/20 05:17:39;;;;;;;4.88;2.88;;;;;;;5.64;83.61;101982.72;5028936;28;20068;-68
2022/04/20 05:20:06;;;;;;;7.32;3.00;;;;;;;5.68;83.94;101992.09;5025191;28;20076;-67
2022/04/20 05:22:32;;;;;;;4.25;2.85;;;;;;;5.71;83.77;101984.91;5022283;28;20481;-67
2022/04/20 05:24:57;;;;;;;5.82;2.60;;;;;;;5.69;83.86;101978.91;5027829;28;20075;-70
2022/04/20 05:27:23;;;;;;;4.60;2.70;;;;;;;5.76;83.39;101988.09;5029371;28;20112;-68
2022/04/20 05:29:48;;;;;;;3.80;2.78;;;;;;;5.83;83.20;101987.72;5024537;28;20084;-68
2022/04/20 05:32:13;;;;;;;6.82;2.80;;;;;;;5.88;83.40;101990.91;5024813;28;20077;-68
2022/04/20 05:34:39;;;;;;;4.70;2.92;;;;;;;5.93;83.95;101988.88;5025555;28;20044;-69
2022/04/20 05:42:33;;;;;;;4.13;3.22;;;;;;;5.99;83.24;101983.31;5026088;28;20072;-68
2022/04/20 05:44:58;;;;;;;6.30;3.22;;;;;;;6.14;82.85;101990.25;5026540;28;20033;-68
2022/04/20 05:47:24;;;;;;;3.35;2.63;;;;;;;6.15;83.46;101984.03;5027248;28;20060;-68
2022/04/20 05:49:49;;;;;;;3.83;2.50;;;;;;;6.25;82.99;101993.97;5022982;28;20029;-69
2022/04/20 05:52:14;;;;;;;4.13;2.80;;;;;;;6.32;83.29;101993.50;5025479;28;20469;-69
2022/04/20 05:54:40;;;;;;;4.97;2.78;;;;;;;6.41;82.53;101993.88;5026661;28;20130;-68
2022/04/20 05:57:05;;;;;;;5.72;3.13;;;;;;;6.45;82.19;101990.97;5027161;28;20057;-69
2022/04/20 05:59:31;;;;;;;5.80;3.20;;;;;;;6.50;82.59;101994.16;5026549;28;20044;-71
2022/04/20 06:01:56;;;;;;;4.82;3.25;;;;;;;6.58;81.49;101996.31;5023887;28;20021;-69
2022/04/20 06:04:21;;;;;;;4.05;2.80;;;;;;;6.63;81.20;101993.41;5025627;28;20448;-69
2022/04/20 06:06:47;;;;;;;5.07;2.83;;;;;;;6.69;79.99;101982.53;5004425;28;20033;-70
2022/04/20 06:09:12;;;;;;;3.38;2.67;;;;;;;6.72;79.25;101979.69;5028149;28;20029;-68
2022/04/20 06:11:37;;;;;;;4.03;2.35;;;;;;;6.70;78.58;101968.44;5028284;28;20124;-70
2022/04/20 06:14:03;;;;;;;4.20;2.58;;;;;;;6.97;78.57;101979.81;5028390;28;20120;-69
2022/04/20 06:16:28;;;;;;;8.18;2.83;;;;;;;7.03;78.17;101977.72;5028817;28;20021;-69
2022/04/20 06:18:56;;;;;;;4.53;2.70;;;;;;;7.09;77.49;101974.72;5021259;28;20477;-69
2022/04/20 06:21:22;;;;;;;6.53;2.50;;;;;;;7.21;77.47;101973.91;5015430;28;20085;-69
2022/04/20 06:23:47;;;;;;;3.15;2.35;;;;;;;7.41;76.53;101991.00;5029715;28;20017;-69
2022/04/20 06:26:13;;;;;;;4.15;2.30;;;;;;;7.48;75.41;101989.63;5014777;28;20060;-68
2022/04/20 06:28:38;;;;;;;3.22;2.55;;;;;;;7.68;75.46;101997.97;5029176;28;20091;-69
2022/04/20 06:31:05;;;;;;;4.25;2.42;;;;;;;7.61;73.96;101977.34;5027638;28;20038;-68
2022/04/20 06:33:30;;;;;;;3.72;2.15;;;;;;;7.93;73.46;102005.06;5030314;28;20064;-70
2022/04/20 06:35:57;;;;;;;3.97;2.60;;;;;;;7.99;72.41;101994.09;5027006;28;20065;-71
2022/04/20 06:38:23;;;;;;;2.72;2.20;;;;;;;7.82;72.10;101993.47;5020825;28;20588;-68
2022/04/20 06:40:48;;;;;;;8.10;3.25;;;;;;;8.23;72.31;102012.59;5017934;28;20034;-68
2022/04/20 06:43:14;;;;;;;4.57;2.67;;;;;;;8.22;71.36;102014.41;5007986;28;20390;-68
2022/04/20 06:45:40;;;;;;;5.63;2.22;;;;;;;8.16;71.54;102004.28;5029540;28;20036;-68
2022/04/20 06:48:05;;;;;;;6.05;2.85;;;;;;;8.29;70.94;102008.72;5026254;28;20037;-68
2022/04/20 06:50:31;;;;;;;3.60;2.30;;;;;;;8.52;70.57;102002.72;5027509;28;20112;-69
2022/04/20 06:58:38;;;;;;;5.10;2.40;;;;;;;8.91;69.08;102000.84;5027734;28;20048;-68
2022/04/20 07:01:06;;;;;;;5.55;2.70;;;;;;;9.43;68.04;101993.53;5026561;28;20388;-69
2022/04/20 07:03:32;;;;;;;4.28;2.50;;;;;;;10.12;65.69;102003.25;5022475;28;20022;-70
2022/04/20 07:06:01;;;;;;;3.92;2.60;;;;;;;10.40;64.55;102015.19;5027570;28;20069;-68
2022/04/20 07:08:27;;;;;;;7.40;2.35;;;;;;;10.61;63.24;102005.56;5028401;28;20048;-69
2022/04/20 07:10:53;;;;;;;4.95;2.67;;;;;;;10.67;64.08;102007.72;5028381;28;20116;-69
2022/04/20 07:13:19;;;;;;;4.35;2.47;;;;;;;11.79;63.50;102007.44;5020561;28;20057;-69
2022/04/20 07:15:45;;;;;;;7.15;2.40;;;;;;;11.97;59.64;102005.91;5029561;28;20044;-69
2022/04/20 07:18:10;;;;;;;6.10;2.72;;;;;;;11.86;60.47;101990.91;5026775;28;20112;-69
2022/04/20 07:20:35;;;;;;;3.97;3.30;;;;;;;12.59;58.53;101990.84;5025333;28;20128;-69
2022/04/20 07:23:01;;;;;;;5.15;2.55;;;;;;;13.45;56.50;101999.03;5013750;28;20563;-69
2022/04/20 07:25:26;;;;;;;4.07;2.20;;;;;;;13.43;56.95;102010.78;5027879;28;20030;-69
2022/04/20 07:27:52;;;;;;;4.25;2.50;;;;;;;14.21;54.46;102006.16;5012767;28;20033;-69
2022/04/20 07:30:18;;;;;;;4.63;2.60;;;;;;;14.82;52.77;102005.59;5024122;28;20461;-69
2022/04/20 07:32:47;;;;;;;3.97;2.10;;;;;;;14.90;51.45;102004.84;5024426;28;20017;-69
2022/04/20 07:35:13;;;;;;;4.72;2.20;;;;;;;14.26;52.37;101995.91;5023286;28;20040;-69
2022/04/20 07:37:38;;;;;;;4.45;2.50;;;;;;;14.54;51.74;102009.22;5025946;28;20037;-69
2022/04/20 07:40:04;;;;;;;5.38;2.47;;;;;;;14.40;52.66;102008.72;5027827;28;20052;-69
2022/04/20 07:42:30;;;;;;;4.03;2.47;;;;;;;15.29;49.87;102009.06;5025212;28;20037;-69
2022/04/20 07:44:56;;;;;;;2.45;2.00;;;;;;;13.46;53.06;102011.34;5011053;28;20084;-70
2022/04/20 07:47:24;;;;;;;5.30;2.53;;;;;;;13.55;53.33;102005.19;5025324;28;20028;-70
2022/04/20 07:52:42;;;;;;;3.50;2.03;;;;;;;15.37;51.42;102002.00;5027007;28;20401;-69
2022/04/20 07:55:10;;;;;;;3.58;2.20;;;;;;;14.33;50.13;101989.06;5027702;28;20071;-69
2022/04/20 07:57:36;;;;;;;6.75;2.05;;;;;;;14.84;51.23;101989.50;5017697;28;20021;-69
2022/04/20 08:00:04;;;;;;;2.53;2.03;;;;;;;14.58;49.90;102005.31;5014171;28;20547;-70
2022/04/20 08:02:30;;;;;;;2.42;1.88;;;;;;;15.16;50.07;102004.94;5016537;28;20032;-69
2022/04/20 08:04:55;;;;;;;5.82;2.10;;;;;;;16.42;47.10;102016.16;5028931;28;20428;-69
2022/04/20 08:07:20;;;;;;;3.47;1.98;;;;;;;15.16;48.80;102023.56;5026178;28;20027;-69
2022/04/20 08:09:46;;;;;;;2.88;1.95;;;;;;;14.85;49.20;102004.47;5025686;28;20090;-69
2022/04/20 08:12:11;;;;;;;2.05;1.60;;;;;;;14.55;49.21;102009.13;5026621;28;20034;-69
2022/04/20 08:14:37;;;;;;;4.05;2.10;;;;;;;15.16;48.79;102002.28;5025676;28;20048;-69
2022/04/20 08:17:02;;;;;;;3.78;2.03;;;;;;;15.41;49.62;102010.47;5023774;28;20033;-69
2022/04/20 08:19:28;;;;;;;4.68;2.17;;;;;;;15.39;48.07;102004.47;5026265;28;20115;-69
2022/04/20 08:21:55;;;;;;;2.90;1.52;;;;;;;16.61;45.82;102008.88;5007995;28;20425;-69
2022/04/20 08:24:20;;;;;;;5.97;2.13;;;;;;;17.43;43.51;102011.75;5023815;28;20033;-69
2022/04/20 08:26:46;;;;;;;7.40;2.00;;;;;;;16.14;45.44;102001.38;5028280;28;20095;-68
2022/04/20 08:29:11;;;;;;;3.28;1.58;;;;;;;16.32;46.72;102010.09;5020274;28;20053;-72
2022/04/20 08:31:37;;;;;;;3.85;1.83;;;;;;;16.44;44.05;102008.84;5027889;28;20068;-72
2022/04/20 08:34:03;;;;;;;3.90;1.42;;;;;;;16.84;43.04;102004.66;5028368;28;20051;-71
2022/04/20 08:36:29;;;;;;;2.00;1.25;;;;;;;16.52;43.51;102001.88;5020687;28;20040;-73
2022/04/20 08:38:54;;;;;;;3.03;1.42;;;;;;;17.01;41.86;102004.72;5013349;28;20034;-70
2022/04/20 08:41:20;;;;;;;1.80;1.40;;;;;;;16.03;43.87;102002.47;5025979;28;20068;-70
2022/04/20 08:43:45;;;;;;;3.83;1.67;;;;;;;17.09;41.99;102006.53;5023972;28;20029;-69
2022/04/20 08:46:11;;;;;;;3.50;1.63;;;;;;;18.15;40.98;102013.69;5027900;28;20067;-69
2022/04/20 08:48:37;;;;;;;4.93;1.70;;;;;;;17.26;42.02;102003.72;5023448;28;20487;-69
2022/04/20 08:51:05;;;;;;;2.45;1.25;;;;;;;16.92;41.16;102017.19;5026737;28;20067;-71
2022/04/20 08:53:30;;;;;;;2.55;1.33;;;;;;;17.58;41.12;102001.22;5016746;28;20034;-70
2022/04/20 08:58:43;;;;;;;3.45;1.70;;;;;;;20.26;37.62;102020.38;5026503;28;20079;-71
2022/04/20 09:01:12;;;;;;;3.75;1.55;;;;;;;20.19;38.54;102021.31;5024648;28;20056;-71
2022/04/20 09:03:38;;;;;;;6.05;1.98;;;;;;;20.89;36.95;102018.09;5022519;28;20017;-70
2022/04/20 09:06:05;;;;;;;2.60;1.40;;;;;;;21.66;36.04;102021.91;5024443;28;20032;-70
2022/04/20 09:08:30;;;;;;;2.92;1.40;;;;;;;22.21;36.11;102018.53;5016265;28;20026;-70
2022/04/20 09:10:57;;;;;;;2.90;1.30;;;;;;;23.67;32.51;102012.69;5024511;28;20034;-70
2022/04/20 09:13:41;;;;;;;2.53;1.58;;;;;;;21.32;34.38;102023.47;5026849;28;20400;-70
2022/04/20 09:16:11;;;;;;;1.73;1.00;;;;;;;23.41;32.85;102022.47;5022773;28;20087;-70
2022/04/20 09:18:38;;;;;;;2.30;1.38;;;;;;;24.07;31.60;102010.81;5025585;28;20021;-71
2022/04/20 09:21:05;;;;;;;4.30;1.30;;;;;;;25.14;30.22;102019.22;5024866;28;20085;-71
2022/04/20 09:23:31;;;;;;;3.58;1.10;;;;;;;23.72;30.85;102016.44;5020780;28;20041;-70
2022/04/20 09:25:56;;;;;;;3.55;1.23;;;;;;;23.32;31.37;102026.38;5022349;28;20033;-70
2022/04/20 09:28:22;;;;;;;1.50;1.00;;;;;;;21.80;33.72;102011.25;5009437;28;20489;-70
2022/04/20 09:30:52;;;;;;;1.90;1.13;;;;;;;19.70;36.51;101998.53;5024178;28;20037;-70
2022/04/20 09:33:18;;;;;;;1.55;1.02;;;;;;;20.94;34.28;102006.78;5024844;28;20033;-70
2022/04/20 09:35:45;;;;;;;1.88;1.35;;;;;;;21.85;33.17;101995.38;5026133;28;20033;-70
2022/04/20 09:38:11;;;;;;;3.30;1.38;;;;;;;20.54;33.51;101991.03;5020865;28;20044;-70
2022/04/20 09:40:38;;;;;;;1.70;1.25;;;;;;;20.40;35.15;101993.75;5022567;28;20031;-70
2022/04/20 09:43:22;;;;;;;2.38;1.25;;;;;;;19.99;34.71;101994.22;5027503;28;20509;-70
2022/04/20 09:49:03;;;;;;;1.90;1.40;;;;;;;17.54;37.92;101958.00;5022412;28;20631;-70
2022/04/20 09:51:36;;;;;;;3.83;1.20;;;;;;;19.46;37.00;101964.75;5011818;28;20037;-70
2022/04/20 09:54:01;;;;;;;3.03;1.58;;;;;;;19.77;35.43;101966.50;5025058;28;20029;-70
2022/04/20 09:56:27;;;;;;;2.30;1.02;;;;;;;21.19;33.70;101961.59;5028703;28;20037;-70
2022/04/20 09:59:01;;;;;;;2.30;1.10;;;;;;;22.31;34.62;101971.47;5026511;28;20561;-70
2022/04/20 10:01:35;;;;;;;1.52;1.10;;;;;;;23.58;32.48;101969.81;5025901;28;20044;-70
2022/04/20 10:04:03;;;;;;;1.95;1.17;;;;;;;22.59;33.25;101974.03;5026083;28;20030;-70
2022/04/20 10:06:29;;;;;;;2.67;1.20;;;;;;;23.87;30.58;101964.22;5023663;28;20029;-70
2022/04/20 10:08:55;;;;;;;1.20;1.10;;;;;;;22.38;32.84;101966.97;5026830;28;20021;-70
2022/04/20 10:11:22;;;;;;;1.80;1.02;;;;;;;20.74;33.08;101974.38;5029408;28;20099;-70
2022/04/20 10:16:05;;;;;;;2.75;1.10;;;;;;;19.97;35.26;101973.00;5012051;28;20088;-70
2022/04/20 10:16:39;;;;;;;2.33;1.40;;;;;;;20.06;34.89;101982.59;5029366;28;20030;-70
2022/04/20 10:19:12;;;;;;;3.67;1.15;;;;;;;20.38;34.82;101969.78;5025537;28;20516;-72
2022/04/20 10:21:47;;;;;;;1.65;1.00;;;;;;;20.33;36.25;101972.22;5025346;28;20048;-71
2022/04/20 10:24:15;;;;;;;2.70;1.00;;;;;;;22.30;33.68;101969.00;5025317;28;20119;-70
2022/04/20 10:26:41;;;;;;;2.13;0.90;;;;;;;21.69;33.58;101973.19;5022731;28;20109;-71
2022/04/20 10:29:33;;;;;;;3.35;0.90;;;;;;;18.79;36.17;101966.31;5026822;28;20025;-70
2022/04/20 10:32:40;;;;;;;1.70;1.00;;;;;;;17.37;39.08;101956.38;5020980;28;20041;-70
2022/04/20 10:35:06;;;;;;;1.60;0.88;;;;;;;17.59;37.65;101961.00;5022000;28;20045;-71
2022/04/20 10:37:32;;;;;;;1.38;0.70;;;;;;;17.92;37.68;101950.31;5018286;28;20040;-70
2022/04/20 10:40:15;;;;;;;4.45;0.95;;;;;;;18.98;36.62;101940.91;5022502;28;20040;-70
2022/04/20 10:42:40;;;;;;;2.83;0.95;;;;;;;18.13;37.90;101944.38;5018125;28;20266;-69
2022/04/20 10:45:07;;;;;;;2.47;0.98;;;;;;;19.46;38.76;101941.50;5025140;28;20022;-70
2022/04/20 10:47:35;;;;;;;3.03;0.88;;;;;;;21.46;36.00;101943.03;5021171;28;20116;-69
2022/04/20 10:50:11;;;;;;;2.28;0.80;;;;;;;20.21;34.56;101933.50;5023500;28;20035;-71
2022/04/20 10:52:37;;;;;;;1.42;0.90;;;;;;;19.22;37.20;101939.88;5018759;28;20429;-71
2022/04/20 10:55:04;;;;;;;2.15;0.85;;;;;;;19.19;37.40;101937.56;5025845;28;20037;-69
2022/04/20 10:57:35;;;;;;;1.90;0.85;;;;;;;19.76;37.22;101927.34;5017152;28;20101;-69
2022/04/20 11:00:21;;;;;;;2.25;0.70;;;;;;;21.73;34.81;101931.47;5024715;28;20069;-70
2022/04/20 11:02:51;;;;;;;1.83;1.00;;;;;;;22.17;34.19;101935.59;5019325;28;20440;-70
2022/04/20 11:05:24;;;;;;;3.83;0.87;;;;;;;21.67;34.50;101931.41;5018453;28;20389;-70
2022/04/20 11:08:16;;;;;;;2.55;0.88;;;;;;;22.37;34.10;101921.44;5020758;28;20428;-70
2022/04/20 11:18:38;;;;;;;1.48;0.82;;;;;;;22.87;32.79;101921.13;5022001;28;20638;-70
2022/04/20 11:19:05;;;;;;;1.42;0.90;;;;;;;22.68;33.05;101918.19;5024624;28;20099;-70
2022/04/20 11:21:31;;;;;;;1.20;0.70;;;;;;;23.03;34.11;101917.22;5024984;28;20053;-70
2022/04/20 11:24:09;;;;;;;1.30;0.70;;;;;;;24.71;32.25;101911.09;5024497;28;20496;-70
2022/04/20 11:26:48;;;;;;;3.15;0.98;;;;;;;21.69;34.64;101908.69;5026671;28;20037;-71
2022/04/20 11:29:24;;;;;;;2.17;0.90;;;;;;;22.10;34.83;101905.19;5025552;28;20025;-71
2022/04/20 11:31:54;;;;;;;2.95;0.73;;;;;;;21.55;34.99;101890.81;5027472;28;20061;-72
2022/04/20 11:34:20;;;;;;;3.42;0.90;;;;;;;22.71;34.91;101900.78;5024624;28;20022;-71
2022/04/20 11:36:48;;;;;;;1.02;0.70;;;;;;;23.64;32.71;101897.25;5029277;28;20029;-72
2022/04/20 11:39:16;;;;;;;3.33;0.95;;;;;;;22.89;32.65;101876.81;5026880;28;20493;-72
2022/04/20 11:41:53;;;;;;;1.13;0.70;;;;;;;20.05;36.27;101897.84;5029005;28;20036;-73
2022/04/20 11:44:22;;;;;;;1.08;0.65;;;;;;;20.09;37.77;101883.06;5027734;28;20037;-71
2022/04/20 11:46:53;;;;;;;2.33;1.10;;;;;;;18.97;37.41;101896.44;5025874;28;20033;-73
2022/04/20 11:49:19;;;;;;;1.42;0.80;;;;;;;20.72;36.68;101880.66;5020372;28;20029;-69
2022/04/20 11:51:52;;;;;;;1.23;0.75;;;;;;;20.63;37.84;101883.69;5024671;28;20033;-69
2022/04/20 11:54:19;;;;;;;1.65;0.98;;;;;;;19.47;39.27;101878.09;5017399;28;20402;-73
2022/04/20 11:56:45;;;;;;;1.55;0.93;;;;;;;20.40;39.21;101875.75;5023161;28;20481;-73
2022/04/20 11:59:10;;;;;;;1.73;0.88;;;;;;;22.67;35.69;101878.00;5025220;28;20057;-75
2022/04/20 12:01:38;;;;;;;2.80;0.80;;;;;;;21.78;36.75;101874.44;5027663;28;20033;-73